Aérodrome :
LOGIN :

S'inscrire | Disclaimer

   EN    FR    IT 

 










Légende :    VFR   VFR Marginal   IFR   IFR Intensif   IFR Très Intensif
Visi : 
Plafond : 
>= 8 km
>= 3000ft
5 à 8 km
1000 à 3000 ft
1500m à 5 km
500 à 1000 ft
800 à 1500m
200 à 500 ft
< 800m
< 200 ft
Symboles :   Orages  Brouillard  Fortes neiges  Fortes précipitations  Vent > 20 kt
SIGMETs :   Divers  Orages  Givrage  Turbulence  Onde Orograph.  Cendres Volcan.







- Altitude de l'aérodrome : 14 ft
- Code IATA : BRE


EDDW - Bremen Neuenland

DERNIER METAR :
  • 261550Z 30007KT 9999 FEW011 SCT028 BKN036 08/06 Q1027 NOSIG

METARs EXPIRÉS :
  • 261520Z 31010KT 9999 FEW011 SCT023 BKN036 07/06 Q1028 NOSIG
  • 261450Z 31011KT 9999 -RA FEW011 SCT014 BKN028 07/05 Q1028 NOSIG
  • 261420Z 31011KT 9999 -RADZ FEW011 BKN018 BKN034 07/06 Q1028 NOSIG
  • 261350Z 30009KT 9999 -RADZ FEW010 BKN020 07/06 Q1027 NOSIG
  • 261320Z 30013KT 9999 -RA FEW013 SCT020 07/05 Q1027 NOSIG

TAF TAF EDDW
Valide du 26 à 12h jusqu'au 27 à 12h UTC


261100Z 2612/2712 30012KT 9999 FEW015 BKN030
TEMPO 2612/2614 31015G25KT
BECMG 2619/2621 28007KT
TEMPO 2623/2710 BKN006
PROB30
TEMPO 2623/2704 4000 BR BKN003
BECMG 2710/2712 28012KT OVC008
TEMPO 2710/2712 3500 -DZRA
Pas de NOTAMs connus pour ce terrain.



MET'MAP, la Météo Aéronautique d'un coup d'oeil ! - Copyright ORBIFLY Décembre 2007 - Disclaimer

ORBIFLY MET'MAP TEAM :

Programmation & Développement : Alexandra Zaïnal
Conception & Développement : Baudouin d'Aumeries
Co-Programmation & Développement : Marc-Olivier Méhu
Soutien technique & logistique : Manuel Goepfert

Contact : metmap@orbifly.com




SOURCES & CREDITS :

   NOAA